ZAD weather

Zadar Airport
Zemunik (Zadar), Zadar County, Croatia

Public forecast

Using degrees Celsius for public forecast. Weather courtesy of forecast.io.

METAR (pilot weather report)

Retrieved 2019/05/21 02:30 UTC (0 seconds ago):

LDZD 210230Z 13005KT CAVOK 12/10 Q1009 NOSIG

TAF (pilot weather forecast)

Forecast is more than 12 hours old.

Retrieved 2019/05/20 00:26 UTC (1 day ago):

TAF LDZD 202325Z 2100/2200 17006KT 9999 FEW040 TX19/2113Z TN10/2104Z BECMG 2108/2110 22010KT PROB30 TEMPO 2109/2112 SHRA FEW030TCU BKN040 BECMG 2115/2117 17006KT